Terminal Aerodrome Forecast
Issued by NWS Charleston, WV

Current Version | Previous Version | Text Only | Print | Product List | Glossary Off
Versions: 1 2 3 4 5 6 7 8 9 10 11 12 13 14 15 16 17 18 19 20

631
FTUS41 KRLX 090557
TAFBKW
TAF
KBKW 090557Z 0906/1006 30007KT P6SM SCT025 OVC050
      TEMPO 0906/0908 5SM -SHSN SCT015 OVC025
     FM090800 27006KT 5SM -SHSN OVC015
     FM091100 26007KT 1 1/2SM -SHSN OVC008
     FM091400 28011G19KT 4SM -SHSN OVC015
     FM091700 28012G20KT P6SM -SHSN OVC025
     FM100000 28009KT 3SM -SHSN OVC015=

USA.gov is the U.S. government's official web portal to all federal, state and local government web resources and services.